Time;durP1;ratioP1;P1;durP2;ratioP2;P2;SDS_P1;SDS_P2;PMS_P1;PMS_P2;Temp;Humidity;BMP_temperature;BMP_pressure;BME280_temperature;BME280_humidity;BME280_pressure;Samples;Min_cycle;Max_cycle;Signal;HPM_P1;HPM_P2
2021/12/10 00:00:18;;;;;;;33.10;12.45;;;;;;;-146.64;100.00;39865.84;5057585;28;20021;-74
2021/12/10 00:02:46;;;;;;;24.20;12.05;;;;;;;-146.64;100.00;39882.22;5057442;28;20033;-74
2021/12/10 00:05:15;;;;;;;30.90;12.15;;;;;;;-146.64;100.00;39884.28;5056872;28;20033;-74
2021/12/10 00:07:42;;;;;;;26.30;12.45;;;;;;;-146.64;100.00;39890.41;5062284;28;20117;-74
2021/12/10 00:10:12;;;;;;;26.73;10.07;;;;;;;-146.64;100.00;39914.97;5062280;28;20022;-73
2021/12/10 00:12:49;;;;;;;31.88;13.27;;;;;;;-146.64;100.00;39872.00;5058546;28;20572;-74
2021/12/10 00:15:15;;;;;;;30.33;12.73;;;;;;;-146.64;100.00;39869.94;5064618;28;20033;-74
2021/12/10 00:17:40;;;;;;;32.70;12.32;;;;;;;-146.64;100.00;39849.47;5044678;28;20032;-73
2021/12/10 00:20:09;;;;;;;24.90;11.90;;;;;;;-146.64;100.00;39869.94;5044796;28;20029;-74
2021/12/10 00:22:52;;;;;;;34.22;12.60;;;;;;;-146.64;100.00;39820.81;5062650;28;20019;-74
2021/12/10 00:25:21;;;;;;;30.92;12.23;;;;;;;-146.64;100.00;39872.00;5058673;28;20178;-73
2021/12/10 00:27:49;;;;;;;31.13;11.98;;;;;;;-146.64;100.00;39882.22;5061073;28;20028;-73
2021/12/10 00:30:19;;;;;;;26.02;11.63;;;;;;;-146.64;100.00;39865.84;5057983;28;20388;-74
2021/12/10 00:33:00;;;;;;;26.00;11.95;;;;;;;-146.64;100.00;39851.53;5056377;28;20032;-74
2021/12/10 00:35:28;;;;;;;32.63;12.85;;;;;;;-146.64;100.00;39833.09;5059641;28;20026;-74
2021/12/10 00:37:54;;;;;;;20.58;10.90;;;;;;;-146.64;100.00;39867.91;5068287;28;20028;-74
2021/12/10 00:40:21;;;;;;;30.38;11.32;;;;;;;-146.64;100.00;39839.25;5057755;28;20451;-74
2021/12/10 00:42:47;;;;;;;22.13;10.70;;;;;;;-146.64;100.00;39829.00;5058440;28;20021;-74
2021/12/10 00:45:15;;;;;;;30.73;12.18;;;;;;;-146.64;100.00;39837.19;5053022;28;20044;-74
2021/12/10 00:47:41;;;;;;;27.60;12.88;;;;;;;-146.64;100.00;39839.25;5070335;28;20369;-74
2021/12/10 00:50:11;;;;;;;14.17;8.57;;;;;;;-146.64;100.00;39837.19;5070978;28;20056;-74
2021/12/10 00:52:36;;;;;;;25.48;11.25;;;;;;;-146.64;100.00;39841.28;5049802;28;20293;-74
2021/12/10 00:55:05;;;;;;;26.40;12.48;;;;;;;-146.64;100.00;39851.53;5061059;28;20439;-74
2021/12/10 00:57:32;;;;;;;27.52;11.15;;;;;;;-146.64;100.00;39878.13;5063907;28;20032;-74
2021/12/10 00:59:57;;;;;;;28.13;10.95;;;;;;;-146.64;100.00;39814.69;5054933;28;20487;-74
2021/12/10 01:02:24;;;;;;;20.05;10.10;;;;;;;-146.64;100.00;39845.38;5062511;28;20036;-75
2021/12/10 01:04:54;;;;;;;25.85;10.60;;;;;;;-146.64;100.00;39743.03;5054302;28;20016;-74
2021/12/10 01:07:22;;;;;;;28.25;11.43;;;;;;;-146.64;100.00;39847.44;5042308;28;20029;-74
2021/12/10 01:09:52;;;;;;;23.13;11.43;;;;;;;-146.64;100.00;39841.28;5059822;28;20379;-74
2021/12/10 01:12:41;;;;;;;26.60;10.90;;;;;;;-146.64;100.00;39829.00;5060998;28;20029;-74
2021/12/10 01:15:45;;;;;;;19.70;10.30;;;;;;;-146.64;100.00;39853.56;5060720;28;20025;-74
2021/12/10 01:26:57;;;;;;;17.13;8.70;;;;;;;-146.64;100.00;39755.31;5058446;28;20120;-74
2021/12/10 01:29:36;;;;;;;20.80;9.73;;;;;;;-146.64;100.00;39835.16;5064297;28;20060;-75
2021/12/10 01:32:05;;;;;;;21.38;10.32;;;;;;;-146.64;100.00;39757.38;5068785;28;20404;-74
2021/12/10 01:34:31;;;;;;;40.05;8.85;;;;;;;-146.64;100.00;39816.72;5057042;28;20021;-74
2021/12/10 01:36:56;;;;;;;16.75;8.32;;;;;;;-146.64;100.00;39814.69;5052035;28;20126;-74
2021/12/10 01:39:26;;;;;;;28.75;8.98;;;;;;;-146.64;100.00;39824.91;5047609;28;21719;-74
2021/12/10 01:41:58;;;;;;;15.52;8.45;;;;;;;-146.64;100.00;39812.63;5055691;28;20602;-74
2021/12/10 01:44:31;;;;;;;16.92;8.27;;;;;;;-146.64;100.00;39800.34;5061601;28;20059;-74
2021/12/10 01:47:00;;;;;;;17.85;7.68;;;;;;;-146.64;100.00;39810.59;5048045;28;20173;-74
2021/12/10 01:49:25;;;;;;;18.20;8.05;;;;;;;-146.64;100.00;39786.03;5044404;28;20074;-74
2021/12/10 01:51:51;;;;;;;20.52;8.27;;;;;;;-146.64;100.00;39824.91;5037490;28;20098;-74
2021/12/10 01:54:22;;;;;;;18.30;6.70;;;;;;;-146.64;100.00;39800.34;5058631;28;20047;-74
2021/12/10 01:56:50;;;;;;;24.63;8.88;;;;;;;-146.64;100.00;39804.44;5064252;28;20466;-74
2021/12/10 01:59:17;;;;;;;20.70;8.18;;;;;;;-146.64;100.00;39779.88;5058825;28;20415;-74
2021/12/10 02:01:46;;;;;;;14.98;7.40;;;;;;;-146.64;100.00;39814.69;5061373;28;20043;-74
2021/12/10 02:04:14;;;;;;;18.00;6.63;;;;;;;-146.64;100.00;39816.72;5068676;28;20028;-74
2021/12/10 02:06:41;;;;;;;15.32;6.43;;;;;;;-146.64;100.00;39824.91;5065132;28;20035;-74
2021/12/10 02:09:07;;;;;;;22.67;6.22;;;;;;;-146.64;100.00;39790.13;5070457;28;20033;-75
2021/12/10 02:11:34;;;;;;;19.83;6.57;;;;;;;-146.64;100.00;39800.34;5056181;28;20435;-74
2021/12/10 02:13:59;;;;;;;19.80;5.70;;;;;;;-146.64;100.00;39783.97;5061065;28;20025;-74
2021/12/10 02:16:25;;;;;;;28.38;6.95;;;;;;;-146.64;100.00;39824.91;5059346;28;20028;-74
2021/12/10 02:18:50;;;;;;;14.77;5.90;;;;;;;-146.64;100.00;39788.06;5060313;28;20087;-74
2021/12/10 02:21:19;;;;;;;15.73;6.53;;;;;;;-146.64;100.00;39777.84;5057048;28;20028;-74
2021/12/10 02:24:00;;;;;;;16.13;5.55;;;;;;;-146.64;100.00;39788.06;5055387;28;20017;-74
2021/12/10 02:26:30;;;;;;;17.15;5.95;;;;;;;-146.64;100.00;39802.41;5036029;28;20048;-74
2021/12/10 02:28:57;;;;;;;21.40;5.88;;;;;;;-146.64;100.00;39783.97;5052383;28;20452;-74
2021/12/10 02:31:24;;;;;;;10.70;5.55;;;;;;;-146.64;100.00;39783.97;5058861;28;20074;-75
2021/12/10 02:33:51;;;;;;;17.95;6.03;;;;;;;-146.64;100.00;39759.41;5067061;28;20508;-74
2021/12/10 02:36:16;;;;;;;;;;;;;;;-146.64;100.00;39749.19;5045069;28;20037;-74
2021/12/10 02:38:45;;;;;;;18.27;5.43;;;;;;;-146.64;100.00;39783.97;5062169;28;19916;-74
2021/12/10 02:41:11;;;;;;;17.63;5.85;;;;;;;-146.64;100.00;39765.56;5045087;28;20075;-74
2021/12/10 02:43:37;;;;;;;14.13;5.20;;;;;;;-146.64;100.00;39767.59;5066842;28;20041;-74
2021/12/10 02:46:03;;;;;;;15.52;5.80;;;;;;;-146.64;100.00;39775.78;5040902;28;20024;-74
2021/12/10 02:48:28;;;;;;;15.73;5.47;;;;;;;-146.64;100.00;39759.41;5058336;28;20475;-74
2021/12/10 02:50:55;;;;;;;16.45;5.25;;;;;;;-146.64;100.00;39786.03;5044932;28;20086;-74
2021/12/10 02:53:26;;;;;;;11.98;5.65;;;;;;;-146.64;100.00;39769.66;5058637;28;20037;-74
2021/12/10 02:55:52;;;;;;;15.60;5.30;;;;;;;-146.64;100.00;39761.47;5057418;28;20090;-74
2021/12/10 02:58:18;;;;;;;16.25;5.20;;;;;;;-146.64;100.00;39747.13;5062763;28;20028;-74
2021/12/10 03:00:49;;;;;;;11.43;4.88;;;;;;;-146.64;100.00;39738.94;5062590;28;20028;-74
2021/12/10 03:03:16;;;;;;;10.32;3.97;;;;;;;-146.64;100.00;39759.41;5040658;28;20492;-74
2021/12/10 03:05:41;;;;;;;11.90;4.90;;;;;;;-146.64;100.00;39775.78;5057110;28;20677;-74
2021/12/10 03:08:09;;;;;;;14.77;5.00;;;;;;;-146.64;100.00;39741.00;5056149;28;20033;-74
2021/12/10 03:10:35;;;;;;;11.27;5.45;;;;;;;-146.64;100.00;39755.31;5064339;28;20393;-74
2021/12/10 03:13:04;;;;;;;15.60;4.57;;;;;;;-146.64;100.00;39661.16;5051518;28;20025;-74
2021/12/10 03:15:30;;;;;;;15.23;4.65;;;;;;;-146.64;100.00;39722.56;5063022;28;20085;-74
2021/12/10 03:17:56;;;;;;;19.83;5.10;;;;;;;-146.64;100.00;39745.09;5041278;28;20066;-74
2021/12/10 03:20:24;;;;;;;11.75;4.43;;;;;;;-146.64;100.00;39802.41;5048796;28;21192;-74
2021/12/10 03:22:49;;;;;;;14.65;4.07;;;;;;;-146.64;100.00;39755.31;5058900;28;20025;-74
2021/12/10 03:25:16;;;;;;;17.55;4.78;;;;;;;-146.64;100.00;39775.78;5064584;28;20032;-74
2021/12/10 03:27:42;;;;;;;12.13;3.78;;;;;;;-146.64;100.00;39818.78;5062621;28;20035;-74
2021/12/10 03:30:10;;;;;;;15.45;4.35;;;;;;;-146.64;100.00;39796.25;5060807;28;20062;-74
2021/12/10 03:32:37;;;;;;;14.90;3.75;;;;;;;-146.64;100.00;39829.00;5055405;28;20475;-74
2021/12/10 03:35:09;;;;;;;14.35;4.82;;;;;;;-146.64;100.00;39777.84;5052512;28;20077;-74
2021/12/10 03:37:36;;;;;;;16.98;4.68;;;;;;;-146.64;100.00;39824.91;5064314;28;20068;-74
2021/12/10 03:40:06;;;;;;;13.70;3.97;;;;;;;-146.64;100.00;39810.59;5042653;28;20040;-74
2021/12/10 03:42:31;;;;;;;9.57;4.10;;;;;;;-146.64;100.00;39751.22;5029408;28;20033;-74
2021/12/10 03:44:56;;;;;;;12.90;4.18;;;;;;;-146.64;100.00;39859.72;5053848;28;20034;-74
2021/12/10 03:47:22;;;;;;;21.17;4.40;;;;;;;-146.64;100.00;39773.75;5051418;28;20111;-73
2021/12/10 03:49:47;;;;;;;10.60;4.07;;;;;;;-146.64;100.00;39771.69;5067205;28;20052;-74
2021/12/10 03:52:14;;;;;;;11.98;3.95;;;;;;;-146.64;100.00;39845.38;5040457;28;20049;-74
2021/12/10 03:54:40;;;;;;;13.63;4.03;;;;;;;-146.64;100.00;39833.09;5057598;28;20388;-74
2021/12/10 03:57:05;;;;;;;11.07;3.30;;;;;;;-146.64;100.00;39816.72;5058156;28;20032;-74
2021/12/10 03:59:31;;;;;;;13.10;3.70;;;;;;;-146.64;100.00;39822.88;5047896;28;20457;-74
2021/12/10 04:01:58;;;;;;;11.65;3.88;;;;;;;-146.64;100.00;39835.16;5052644;28;20051;-74
2021/12/10 04:04:27;;;;;;;10.80;3.22;;;;;;;-146.64;100.00;39812.63;5052983;28;20488;-74
2021/12/10 04:06:55;;;;;;;10.50;3.13;;;;;;;-146.64;100.00;39816.72;5065968;28;20099;-74
2021/12/10 04:09:21;;;;;;;12.68;3.60;;;;;;;-146.64;100.00;39812.63;5037420;28;20021;-74
2021/12/10 04:11:46;;;;;;;12.00;3.10;;;;;;;-146.64;100.00;39837.19;5042347;28;20029;-74
2021/12/10 04:14:12;;;;;;;11.85;3.25;;;;;;;-146.64;100.00;39814.69;5061872;28;20028;-74
2021/12/10 04:16:38;;;;;;;9.15;3.33;;;;;;;-146.64;100.00;39808.53;5066925;28;20434;-74
2021/12/10 04:19:06;;;;;;;15.18;3.28;;;;;;;-146.64;100.00;39806.50;5071633;28;20035;-74
2021/12/10 04:21:39;;;;;;;8.02;2.50;;;;;;;-146.64;100.00;39798.31;5055533;28;20025;-75
2021/12/10 04:24:04;;;;;;;11.10;3.28;;;;;;;-146.64;100.00;39796.25;5070155;28;20487;-74
2021/12/10 04:26:30;;;;;;;9.13;2.90;;;;;;;-146.64;100.00;39759.41;5053114;28;20033;-74
2021/12/10 04:28:55;;;;;;;13.10;3.15;;;;;;;-146.64;100.00;39806.50;5060922;28;20181;-74
2021/12/10 04:31:20;;;;;;;13.85;3.47;;;;;;;-146.64;100.00;39777.84;5073002;28;20131;-74
2021/12/10 04:33:46;;;;;;;8.43;2.83;;;;;;;-146.64;100.00;39798.31;5065703;28;20032;-74
2021/12/10 04:36:11;;;;;;;11.18;2.72;;;;;;;-146.64;100.00;39734.84;5072207;28;20488;-74
2021/12/10 04:38:39;;;;;;;12.60;3.47;;;;;;;-146.64;100.00;39765.56;5060010;28;20614;-74
2021/12/10 04:41:07;;;;;;;7.95;3.25;;;;;;;-146.64;100.00;39792.16;5057486;28;20507;-74
2021/12/10 04:43:34;;;;;;;9.27;4.00;;;;;;;-146.64;100.00;39765.56;5062170;28;20391;-74
2021/12/10 04:45:59;;;;;;;10.93;2.85;;;;;;;-146.64;100.00;39792.16;5063046;28;20040;-74
2021/12/10 04:48:27;;;;;;;8.73;2.67;;;;;;;-146.64;100.00;39753.28;5065225;28;20025;-74
2021/12/10 04:50:53;;;;;;;12.55;2.72;;;;;;;-146.64;100.00;39796.25;5052301;28;20131;-74
2021/12/10 04:53:18;;;;;;;10.30;3.55;;;;;;;-146.64;100.00;39790.13;5060322;28;20139;-74
2021/12/10 04:55:45;;;;;;;11.73;2.70;;;;;;;-146.64;100.00;39820.81;5052452;28;20543;-74
2021/12/10 04:58:12;;;;;;;13.90;3.17;;;;;;;-146.64;100.00;39763.50;5057379;28;20403;-74
2021/12/10 05:00:43;;;;;;;7.88;2.70;;;;;;;-146.64;100.00;39775.78;5042419;28;20062;-74
2021/12/10 05:03:09;;;;;;;9.88;2.90;;;;;;;-146.64;100.00;39804.44;5050796;28;20035;-74
2021/12/10 05:05:36;;;;;;;12.52;2.90;;;;;;;-146.64;100.00;39788.06;5060853;28;20056;-74
2021/12/10 05:08:02;;;;;;;;;;;;;;;-146.64;100.00;39775.78;5067897;28;20116;-74
2021/12/10 05:10:28;;;;;;;14.23;2.80;;;;;;;-146.64;100.00;39816.72;5059269;28;19948;-74
2021/12/10 05:12:55;;;;;;;13.77;3.25;;;;;;;-146.64;100.00;39751.22;5056552;28;20028;-74
2021/12/10 05:15:23;;;;;;;22.98;3.35;;;;;;;-146.64;100.00;39779.88;5060096;28;20025;-74
2021/12/10 05:17:50;;;;;;;5.50;2.22;;;;;;;-146.64;100.00;39796.25;5063535;28;20047;-74
2021/12/10 05:20:20;;;;;;;13.13;3.25;;;;;;;-146.64;100.00;39783.97;5056089;28;20052;-74
2021/12/10 05:22:47;;;;;;;10.60;2.55;;;;;;;-146.64;100.00;39781.94;5054237;28;20029;-74
2021/12/10 05:25:13;;;;;;;12.98;2.88;;;;;;;-146.64;100.00;39769.66;5062407;28;20025;-73
2021/12/10 05:27:39;;;;;;;13.43;2.70;;;;;;;-146.64;100.00;39788.06;5047365;28;20037;-73
2021/12/10 05:30:07;;;;;;;15.23;2.53;;;;;;;-146.64;100.00;39775.78;5059617;28;20024;-73
2021/12/10 05:32:33;;;;;;;10.38;2.45;;;;;;;-146.64;100.00;39771.69;5052205;28;20037;-73
2021/12/10 05:34:59;;;;;;;9.57;2.70;;;;;;;-146.64;100.00;39693.91;5056327;28;20178;-73
2021/12/10 05:37:25;;;;;;;11.30;2.70;;;;;;;-146.64;100.00;39820.81;5052295;28;20467;-73
2021/12/10 05:39:50;;;;;;;8.02;2.50;;;;;;;-146.64;100.00;39820.81;5067033;28;20036;-74
2021/12/10 05:42:15;;;;;;;10.45;2.42;;;;;;;-146.64;100.00;39812.63;5065693;28;20111;-73
2021/12/10 05:44:41;;;;;;;10.38;2.70;;;;;;;-146.64;100.00;39777.84;5060606;28;20043;-73
2021/12/10 05:47:06;;;;;;;13.18;2.75;;;;;;;-146.64;100.00;39826.97;5070063;28;20102;-73
2021/12/10 05:49:33;;;;;;;8.82;2.53;;;;;;;-146.64;100.00;39788.06;5049069;28;20215;-73
2021/12/10 05:51:58;;;;;;;9.57;2.65;;;;;;;-146.64;100.00;39814.69;5063206;28;20053;-74
2021/12/10 05:54:23;;;;;;;10.20;2.45;;;;;;;-146.64;100.00;39783.97;5061022;28;20032;-73
2021/12/10 05:56:50;;;;;;;10.18;2.20;;;;;;;-146.64;100.00;39783.97;5058231;28;20033;-73
2021/12/10 05:59:15;;;;;;;10.50;2.78;;;;;;;-146.64;100.00;39816.72;5062470;28;20031;-73
2021/12/10 06:01:41;;;;;;;13.73;2.47;;;;;;;-146.64;100.00;39804.44;5051364;28;20040;-73
2021/12/10 06:04:07;;;;;;;9.15;2.92;;;;;;;-146.64;100.00;39855.63;5036552;28;20071;-73
2021/12/10 06:06:34;;;;;;;13.02;2.72;;;;;;;-146.64;100.00;39826.97;5037629;28;20055;-73
2021/12/10 06:09:02;;;;;;;8.03;2.30;;;;;;;-146.64;100.00;39783.97;5051494;28;20087;-73
2021/12/10 06:11:29;;;;;;;9.93;3.20;;;;;;;-146.64;100.00;39806.50;5052391;28;20036;-73
2021/12/10 06:13:55;;;;;;;11.77;3.03;;;;;;;-146.64;100.00;39779.88;5060245;28;20031;-73
2021/12/10 06:16:20;;;;;;;9.10;2.08;;;;;;;-146.64;100.00;39718.47;5068060;28;20115;-73
2021/12/10 06:18:47;;;;;;;10.10;2.97;;;;;;;-146.64;100.00;39824.91;5054473;28;20035;-73
2021/12/10 06:21:13;;;;;;;13.23;2.47;;;;;;;-146.64;100.00;39808.53;5059134;28;20031;-73
2021/12/10 06:23:39;;;;;;;10.50;2.38;;;;;;;-146.64;100.00;39804.44;5046156;28;20127;-73
2021/12/10 06:26:05;;;;;;;13.00;2.40;;;;;;;-146.64;100.00;39781.94;5037773;28;20040;-73
2021/12/10 06:28:31;;;;;;;10.75;3.03;;;;;;;-146.64;100.00;39800.34;5054742;28;20285;-73
2021/12/10 06:30:57;;;;;;;16.17;3.80;;;;;;;-146.64;100.00;39745.09;5051126;28;20039;-73
2021/12/10 06:33:25;;;;;;;11.05;2.22;;;;;;;-146.64;100.00;39767.59;5046690;28;20033;-73
2021/12/10 06:35:52;;;;;;;13.45;2.83;;;;;;;-146.64;100.00;39765.56;5059425;28;20479;-73
2021/12/10 06:38:19;;;;;;;9.10;2.10;;;;;;;-146.64;100.00;39779.88;5034233;28;20048;-73
2021/12/10 06:40:45;;;;;;;9.88;2.60;;;;;;;-146.64;100.00;39775.78;5037837;28;20045;-73
2021/12/10 06:43:11;;;;;;;11.35;2.53;;;;;;;-146.64;100.00;39849.47;5052838;28;20192;-73
2021/12/10 06:45:37;;;;;;;11.63;2.58;;;;;;;-146.64;100.00;39783.97;5064254;28;20043;-73
2021/12/10 06:48:06;;;;;;;13.18;2.30;;;;;;;-146.64;100.00;39810.59;5034897;28;20052;-73
2021/12/10 06:50:35;;;;;;;7.90;2.17;;;;;;;-146.64;100.00;39783.97;5040063;28;20058;-73
2021/12/10 06:53:00;;;;;;;9.00;2.40;;;;;;;-146.64;100.00;39808.53;5046662;28;20545;-73
2021/12/10 06:55:27;;;;;;;8.63;2.47;;;;;;;-146.64;100.00;39818.78;5046716;28;20195;-73
2021/12/10 06:57:52;;;;;;;13.90;2.55;;;;;;;-146.64;100.00;39796.25;5054664;28;20496;-73
2021/12/10 07:00:44;;;;;;;10.52;2.30;;;;;;;-146.64;100.00;39841.28;5043426;28;20039;-73
2021/12/10 07:03:12;;;;;;;15.32;3.20;;;;;;;-146.64;100.00;39751.22;5053272;28;20021;-72
2021/12/10 07:05:37;;;;;;;9.98;2.90;;;;;;;-146.64;100.00;39812.63;5039115;28;20024;-73
2021/12/10 07:08:03;;;;;;;15.82;2.97;;;;;;;-146.64;100.00;39829.00;5056410;28;20028;-73
2021/12/10 07:10:28;;;;;;;13.32;2.92;;;;;;;-146.64;100.00;39802.41;5058138;28;20391;-73
2021/12/10 07:12:54;;;;;;;6.63;2.60;;;;;;;-146.64;100.00;39835.16;5055086;28;20029;-73
2021/12/10 07:15:19;;;;;;;11.85;3.30;;;;;;;-146.64;100.00;39826.97;5055255;28;20033;-73
2021/12/10 07:17:47;;;;;;;13.57;3.15;;;;;;;-146.64;100.00;39829.00;5049837;28;20403;-73
2021/12/10 07:20:15;;;;;;;8.77;2.47;;;;;;;-146.64;100.00;39829.00;5056955;28;20070;-73
2021/12/10 07:22:41;;;;;;;11.13;2.63;;;;;;;-146.64;100.00;39822.88;5050292;28;20021;-73
2021/12/10 07:25:07;;;;;;;11.93;2.65;;;;;;;-146.64;100.00;39863.81;5044840;28;20038;-73
2021/12/10 07:27:33;;;;;;;18.08;2.83;;;;;;;-146.64;100.00;39822.88;5038466;28;20115;-73
2021/12/10 07:29:58;;;;;;;12.65;2.42;;;;;;;-146.64;100.00;39806.50;5048838;28;20127;-73
2021/12/10 07:32:24;;;;;;;17.60;3.05;;;;;;;-146.64;100.00;39869.94;5038608;28;20115;-73
2021/12/10 07:34:49;;;;;;;11.70;3.03;;;;;;;-146.64;100.00;39874.03;5055946;28;20045;-73
2021/12/10 07:37:14;;;;;;;6.88;2.75;;;;;;;-146.64;100.00;39849.47;5068160;28;20020;-73
2021/12/10 07:39:40;;;;;;;11.20;2.60;;;;;;;-146.64;100.00;39796.25;5051007;28;20036;-73
2021/12/10 07:42:07;;;;;;;17.00;4.25;;;;;;;-146.64;100.00;39874.03;5051421;28;20489;-73
2021/12/10 07:44:34;;;;;;;8.38;2.75;;;;;;;-146.64;100.00;39847.44;5061167;28;20349;-73
2021/12/10 07:47:01;;;;;;;18.10;2.85;;;;;;;-146.64;100.00;39853.56;5062987;28;20479;-73
2021/12/10 07:49:30;;;;;;;11.25;3.20;;;;;;;-146.64;100.00;39816.72;5033664;28;20332;-73
2021/12/10 07:51:57;;;;;;;10.68;3.08;;;;;;;-146.64;100.00;39812.63;5060884;28;20065;-73
2021/12/10 07:54:22;;;;;;;9.63;3.72;;;;;;;-146.64;100.00;39814.69;5052169;28;20025;-73
2021/12/10 07:56:48;;;;;;;7.95;3.17;;;;;;;-146.64;100.00;39808.53;5045967;28;20037;-73
2021/12/10 07:59:14;;;;;;;13.65;2.80;;;;;;;-146.64;100.00;39804.44;5056271;28;20032;-73
2021/12/10 08:01:39;;;;;;;10.65;3.00;;;;;;;-146.64;100.00;39816.72;5064280;28;20510;-73
2021/12/10 08:04:06;;;;;;;8.18;2.42;;;;;;;-146.64;100.00;39689.81;5065313;28;20027;-74
2021/12/10 08:06:33;;;;;;;8.05;3.28;;;;;;;-146.64;100.00;39818.78;5059178;28;20400;-74
2021/12/10 08:08:58;;;;;;;11.63;2.75;;;;;;;-146.64;100.00;39869.94;5061474;28;20036;-73
2021/12/10 08:11:24;;;;;;;10.55;2.58;;;;;;;-146.64;100.00;39773.75;5066528;28;20028;-73
2021/12/10 08:13:50;;;;;;;5.20;2.30;;;;;;;-146.64;100.00;39853.56;5044785;28;20049;-73
2021/12/10 08:16:16;;;;;;;7.45;2.70;;;;;;;-146.64;100.00;39837.19;5048923;28;20077;-73
2021/12/10 08:18:41;;;;;;;5.50;2.50;;;;;;;-146.64;100.00;39829.00;5059405;28;20070;-73
2021/12/10 08:21:07;;;;;;;10.93;3.45;;;;;;;-146.64;100.00;39833.09;5070528;28;20104;-73
2021/12/10 08:23:35;;;;;;;8.25;2.92;;;;;;;-146.64;100.00;39872.00;5067067;28;20091;-73
2021/12/10 08:26:00;;;;;;;8.55;3.47;;;;;;;-146.64;100.00;39804.44;5061187;28;20037;-73
2021/12/10 08:28:27;;;;;;;8.10;3.28;;;;;;;-146.64;100.00;39829.00;5055514;28;20392;-73
2021/12/10 08:30:53;;;;;;;12.40;3.03;;;;;;;-146.64;100.00;39843.34;5062512;28;20372;-73
2021/12/10 08:33:19;;;;;;;8.82;3.40;;;;;;;-146.64;100.00;39869.94;5070371;28;20039;-73
2021/12/10 08:35:49;;;;;;;8.10;2.95;;;;;;;-146.64;100.00;39882.22;5065898;28;20151;-73
2021/12/10 08:38:15;;;;;;;10.15;3.17;;;;;;;-146.64;100.00;39867.91;5053012;28;20027;-73
2021/12/10 08:40:55;;;;;;;10.07;3.53;;;;;;;-146.64;100.00;39869.94;5065208;28;20024;-73
2021/12/10 08:43:21;;;;;;;17.65;4.47;;;;;;;-146.64;100.00;39869.94;5056531;28;20427;-73
2021/12/10 08:45:47;;;;;;;9.43;2.65;;;;;;;-146.64;100.00;39869.94;5042866;28;20492;-74
2021/12/10 08:48:12;;;;;;;12.18;3.85;;;;;;;-146.64;100.00;39888.38;5051088;28;20039;-74
2021/12/10 08:50:40;;;;;;;13.75;3.47;;;;;;;-146.64;100.00;39869.94;5044957;28;20399;-73
2021/12/10 08:53:09;;;;;;;11.98;3.83;;;;;;;-146.64;100.00;39867.91;5046383;28;20486;-73
2021/12/10 08:55:36;;;;;;;6.50;2.55;;;;;;;-146.64;100.00;39853.56;5053630;28;20040;-74
2021/12/10 08:58:03;;;;;;;7.40;2.55;;;;;;;-146.64;100.00;39849.47;5050332;28;20207;-73
2021/12/10 09:00:29;;;;;;;9.52;3.38;;;;;;;-146.64;100.00;39837.19;5033835;28;20055;-73
2021/12/10 09:02:55;;;;;;;16.13;3.13;;;;;;;-146.64;100.00;39861.75;5054371;28;20028;-73
2021/12/10 09:05:22;;;;;;;15.48;3.60;;;;;;;-146.64;100.00;39855.63;5051521;28;20246;-73
2021/12/10 09:07:48;;;;;;;9.02;2.97;;;;;;;-146.64;100.00;39849.47;5050143;28;20405;-72
2021/12/10 09:10:22;;;;;;;12.13;3.60;;;;;;;-146.64;100.00;39857.66;5054211;28;20025;-73
2021/12/10 09:12:48;;;;;;;8.95;3.47;;;;;;;-146.64;100.00;39869.94;5060671;28;20526;-73
2021/12/10 09:15:18;;;;;;;19.70;3.08;;;;;;;-146.64;100.00;39874.03;5065246;28;20028;-73
2021/12/10 09:17:44;;;;;;;14.48;4.43;;;;;;;-146.64;100.00;39869.94;5033921;28;20028;-73
2021/12/10 09:20:17;;;;;;;10.35;3.17;;;;;;;-146.64;100.00;39886.31;5061196;28;20078;-73
2021/12/10 09:22:42;;;;;;;10.82;3.65;;;;;;;-146.64;100.00;39857.66;5034751;28;20027;-73
2021/12/10 09:25:09;;;;;;;16.23;3.30;;;;;;;-146.64;100.00;39878.13;5067740;28;20033;-73
2021/12/10 09:27:35;;;;;;;14.63;3.53;;;;;;;-146.64;100.00;39867.91;5051289;28;20448;-73
2021/12/10 09:30:00;;;;;;;10.45;3.00;;;;;;;-146.64;100.00;39837.19;5061745;28;20036;-73
2021/12/10 09:32:26;;;;;;;14.30;3.78;;;;;;;-146.64;100.00;39890.41;5070735;28;20024;-73
2021/12/10 09:34:54;;;;;;;9.38;4.18;;;;;;;-146.64;100.00;39861.75;5069660;28;20044;-73
2021/12/10 09:37:22;;;;;;;12.95;4.03;;;;;;;-146.64;100.00;39878.13;5059257;28;20032;-73
2021/12/10 09:39:49;;;;;;;10.02;2.95;;;;;;;-146.64;100.00;39898.59;5042432;28;20078;-73
2021/12/10 09:42:16;;;;;;;10.10;3.60;;;;;;;-146.64;100.00;39890.41;5046517;28;20435;-73
2021/12/10 09:44:42;;;;;;;16.73;3.20;;;;;;;-146.64;100.00;39869.94;5046181;28;20452;-73
2021/12/10 09:47:14;;;;;;;13.93;2.72;;;;;;;-146.64;100.00;39925.22;5049339;28;20086;-73
2021/12/10 09:49:44;;;;;;;12.60;3.30;;;;;;;-146.64;100.00;39886.31;5051127;28;20028;-73
2021/12/10 09:52:10;;;;;;;10.70;4.32;;;;;;;-146.64;100.00;39837.19;5059859;28;20130;-73
2021/12/10 09:54:36;;;;;;;14.02;4.15;;;;;;;-146.64;100.00;39865.84;5052605;28;20078;-73
2021/12/10 09:57:13;;;;;;;14.27;3.65;;;;;;;-146.64;100.00;39865.84;5051223;28;20120;-73
2021/12/10 09:59:41;;;;;;;16.20;3.53;;;;;;;-146.64;100.00;39853.56;5059232;28;20059;-73
2021/12/10 10:02:07;;;;;;;10.60;3.63;;;;;;;-146.64;100.00;39804.44;5061442;28;20017;-73
2021/12/10 10:04:35;;;;;;;12.52;4.15;;;;;;;-146.64;100.00;39835.16;5050176;28;20376;-73
2021/12/10 10:07:07;;;;;;;17.15;4.50;;;;;;;-146.64;100.00;39824.91;5033378;28;20029;-73
2021/12/10 10:09:33;;;;;;;10.15;3.75;;;;;;;-146.64;100.00;39847.44;5064674;28;20507;-73
2021/12/10 10:12:06;;;;;;;18.05;4.10;;;;;;;-146.64;100.00;39829.00;5053096;28;20112;-73
2021/12/10 10:14:33;;;;;;;8.48;3.55;;;;;;;-146.64;100.00;39837.19;5041168;28;20033;-73
2021/12/10 10:16:59;;;;;;;12.82;4.25;;;;;;;-146.64;100.00;39800.34;5051435;28;20028;-73
2021/12/10 10:19:25;;;;;;;11.35;3.72;;;;;;;-146.64;100.00;39841.28;5070091;28;20032;-73
2021/12/10 10:21:53;;;;;;;12.95;3.65;;;;;;;-146.64;100.00;39812.63;5057359;28;20594;-73
2021/12/10 10:24:19;;;;;;;12.88;3.72;;;;;;;-146.64;100.00;39812.63;5043701;28;20102;-73
2021/12/10 10:26:52;;;;;;;9.13;3.20;;;;;;;-146.64;100.00;39820.81;5051312;28;20029;-73
2021/12/10 10:29:19;;;;;;;12.50;3.50;;;;;;;-146.64;100.00;39816.72;5051060;28;20037;-73
2021/12/10 10:31:50;;;;;;;12.70;3.72;;;;;;;-146.64;100.00;39826.97;5053225;28;20115;-73
2021/12/10 10:34:17;;;;;;;7.53;3.28;;;;;;;-146.64;100.00;39767.59;5032601;28;20029;-73
2021/12/10 10:36:42;;;;;;;11.90;3.08;;;;;;;-146.64;100.00;39773.75;5059078;28;20025;-73
2021/12/10 10:39:17;;;;;;;7.55;3.20;;;;;;;-146.64;100.00;39808.53;5056183;28;20033;-73
2021/12/10 10:41:46;;;;;;;10.23;3.92;;;;;;;-146.64;100.00;39769.66;5061344;28;20040;-74
2021/12/10 10:44:12;;;;;;;10.02;3.33;;;;;;;-146.64;100.00;39812.63;5051445;28;20091;-73
2021/12/10 10:46:37;;;;;;;14.38;3.40;;;;;;;-146.64;100.00;39759.41;5041568;28;20029;-73
2021/12/10 10:49:04;;;;;;;21.13;4.55;;;;;;;-146.64;100.00;39751.22;5055746;28;20033;-73
2021/12/10 10:51:37;;;;;;;11.77;3.78;;;;;;;-146.64;100.00;39753.28;5058745;28;20044;-73
2021/12/10 10:54:08;;;;;;;16.40;3.75;;;;;;;-146.64;100.00;39765.56;5060896;28;20115;-73
2021/12/10 10:56:45;;;;;;;18.45;3.83;;;;;;;-146.64;100.00;39800.34;5051515;28;20076;-73
2021/12/10 10:59:18;;;;;;;12.07;2.97;;;;;;;-146.64;100.00;39788.06;5063506;28;20060;-73
2021/12/10 11:01:58;;;;;;;12.95;3.83;;;;;;;-146.64;100.00;39741.00;5061564;28;20034;-73
2021/12/10 11:04:28;;;;;;;9.30;3.15;;;;;;;-146.64;100.00;39743.03;5057039;28;20021;-73
2021/12/10 11:06:59;;;;;;;15.60;3.28;;;;;;;-146.64;100.00;39783.97;5048834;28;20387;-73
2021/12/10 11:09:30;;;;;;;9.45;3.30;;;;;;;-146.64;100.00;39788.06;5051726;28;20435;-73
2021/12/10 11:12:01;;;;;;;11.00;3.40;;;;;;;-146.64;100.00;39771.69;5048844;28;20040;-73